BAW12J EGKK-KTPA
Flight info
| Callsign | BAW12J |
|---|---|
| Flight time | N/A |
| Altitude | 36000 |
| Route | NOVMA L620 SAM N19 ADKIK DCT MOPAT DCT ERTER DCT LILNO DCT LIMRI/M082F370 DCT 53N020W 53N030W 53N040W 52N050W DCT TUDEP/N0481F380 N526A TOPPS DCT KAYCC/N0473F400 DCT KYLOH DCT NELIE Q75 TEUFL DCT BAAMF DADES2 |
| Aircraft | B772/H-SDE2E3FGHIJ5LORVWXY/LB1D1 |
Departure
| Time | N/A |
|---|---|
| Airport | London Gatwick Airport (EGKK) |
Arrival
| Time | 2026-05-05 06:20 |
|---|---|
| Airport | Tampa International Airport (KTPA) |
| Time | Latitude | Longitude | Altitude | Speed | Heading |
|---|---|---|---|---|---|
| 2026-05-05 05:12 | 33.01223 | -81.52651 | 40026 ft | 448 kts | 207° |
| 2026-05-05 05:12 | 32.98296 | -81.53899 | 40028 ft | 446 kts | 207° |
| 2026-05-05 05:13 | 32.92448 | -81.56393 | 40022 ft | 446 kts | 207° |
| 2026-05-05 05:13 | 32.86627 | -81.58969 | 40029 ft | 444 kts | 209° |
| 2026-05-05 05:14 | 32.81889 | -81.61126 | 40036 ft | 444 kts | 209° |
| 2026-05-05 05:14 | 32.76125 | -81.63741 | 40045 ft | 444 kts | 209° |
| 2026-05-05 05:15 | 32.70349 | -81.66354 | 40068 ft | 443 kts | 208° |
| 2026-05-05 05:15 | 32.64554 | -81.68971 | 40068 ft | 446 kts | 208° |
| 2026-05-05 05:16 | 32.58793 | -81.71564 | 40066 ft | 442 kts | 209° |
| 2026-05-05 05:16 | 32.53015 | -81.74164 | 40064 ft | 443 kts | 208° |
| 2026-05-05 05:17 | 32.47253 | -81.76752 | 40061 ft | 443 kts | 209° |
| 2026-05-05 05:17 | 32.41499 | -81.79333 | 40058 ft | 443 kts | 209° |
| 2026-05-05 05:18 | 32.35737 | -81.81912 | 40066 ft | 441 kts | 209° |
| 2026-05-05 05:18 | 32.29979 | -81.84489 | 40059 ft | 443 kts | 209° |
| 2026-05-05 05:19 | 32.24242 | -81.87051 | 40061 ft | 442 kts | 209° |
| 2026-05-05 05:19 | 32.18502 | -81.89611 | 40063 ft | 441 kts | 209° |
| 2026-05-05 05:20 | 32.12715 | -81.92151 | 40058 ft | 446 kts | 207° |
| 2026-05-05 05:20 | 32.06779 | -81.94347 | 40056 ft | 445 kts | 206° |
| 2026-05-05 05:21 | 32.00889 | -81.96521 | 40055 ft | 444 kts | 206° |
| 2026-05-05 05:21 | 31.94988 | -81.98712 | 40043 ft | 446 kts | 206° |
| 2026-05-05 05:22 | 31.89108 | -82.00897 | 40044 ft | 445 kts | 207° |
| 2026-05-05 05:22 | 31.83062 | -82.02731 | 40037 ft | 450 kts | 201° |
| 2026-05-05 05:23 | 31.76910 | -82.04281 | 40057 ft | 452 kts | 201° |
| 2026-05-05 05:23 | 31.70753 | -82.05830 | 40039 ft | 450 kts | 201° |
| 2026-05-05 05:24 | 31.64638 | -82.07371 | 40040 ft | 450 kts | 201° |
| 2026-05-05 05:24 | 31.58481 | -82.08923 | 40040 ft | 452 kts | 201° |
| 2026-05-05 05:25 | 31.52353 | -82.10464 | 40041 ft | 451 kts | 201° |
| 2026-05-05 05:25 | 31.46190 | -82.12014 | 40035 ft | 451 kts | 201° |
| 2026-05-05 05:26 | 31.40046 | -82.13556 | 40032 ft | 450 kts | 201° |
| 2026-05-05 05:26 | 31.33950 | -82.15085 | 40028 ft | 450 kts | 201° |
| 2026-05-05 05:27 | 31.27807 | -82.16624 | 40024 ft | 451 kts | 201° |
| 2026-05-05 05:27 | 31.18745 | -82.18890 | 40032 ft | 451 kts | 201° |
| 2026-05-05 05:28 | 31.12604 | -82.20423 | 40021 ft | 452 kts | 202° |
| 2026-05-05 05:28 | 31.06513 | -82.21940 | 40019 ft | 450 kts | 202° |
| 2026-05-05 05:29 | 31.00338 | -82.23478 | 40021 ft | 451 kts | 202° |
| 2026-05-05 05:29 | 30.94202 | -82.25005 | 40022 ft | 452 kts | 201° |
| 2026-05-05 05:30 | 30.88083 | -82.26524 | 40015 ft | 453 kts | 201° |
| 2026-05-05 05:30 | 30.81902 | -82.28056 | 40016 ft | 452 kts | 201° |
| 2026-05-05 05:31 | 30.75720 | -82.29588 | 40017 ft | 453 kts | 201° |
| 2026-05-05 05:31 | 30.69550 | -82.31114 | 40010 ft | 454 kts | 201° |
| 2026-05-05 05:32 | 30.63275 | -82.32220 | 40017 ft | 462 kts | 195° |
| 2026-05-05 05:32 | 30.56893 | -82.33012 | 40014 ft | 460 kts | 195° |
| 2026-05-05 05:33 | 30.50510 | -82.33805 | 40017 ft | 461 kts | 195° |
| 2026-05-05 05:33 | 30.44089 | -82.34604 | 40011 ft | 463 kts | 195° |
| 2026-05-05 05:34 | 30.37683 | -82.35400 | 40009 ft | 462 kts | 195° |
| 2026-05-05 05:34 | 30.31300 | -82.36193 | 40013 ft | 462 kts | 195° |
| 2026-05-05 05:35 | 30.24909 | -82.36987 | 40013 ft | 463 kts | 195° |
| 2026-05-05 05:35 | 30.18527 | -82.37772 | 40013 ft | 465 kts | 193° |
| 2026-05-05 05:36 | 30.17754 | -82.37836 | 40012 ft | 467 kts | 191° |
| 2026-05-05 05:36 | 30.11648 | -82.37666 | 40016 ft | 473 kts | 186° |
| 2026-05-05 05:37 | 30.05036 | -82.37289 | 40010 ft | 473 kts | 186° |
| 2026-05-05 05:37 | 29.98465 | -82.36919 | 40010 ft | 475 kts | 186° |
| 2026-05-05 05:38 | 29.91890 | -82.36549 | 40012 ft | 472 kts | 185° |
| 2026-05-05 05:38 | 29.85415 | -82.36190 | 40011 ft | 477 kts | 185° |
| 2026-05-05 05:39 | 29.82079 | -82.36002 | 39698 ft | 472 kts | 185° |
| 2026-05-05 05:39 | 29.78798 | -82.35820 | 38667 ft | 477 kts | 185° |
| 2026-05-05 05:39 | 29.75504 | -82.35639 | 37821 ft | 478 kts | 185° |
| 2026-05-05 05:39 | 29.72174 | -82.35454 | 37106 ft | 477 kts | 185° |
| 2026-05-05 05:40 | 29.68871 | -82.35270 | 36396 ft | 476 kts | 185° |
| 2026-05-05 05:40 | 29.67260 | -82.35180 | 36049 ft | 476 kts | 185° |
| 2026-05-05 05:40 | 29.64355 | -82.35023 | 35119 ft | 472 kts | 179° |
| 2026-05-05 05:41 | 29.61803 | -82.34879 | 34339 ft | 480 kts | 186° |
| 2026-05-05 05:41 | 29.58401 | -82.34700 | 33915 ft | 501 kts | 186° |
| 2026-05-05 05:41 | 29.54856 | -82.34516 | 33251 ft | 529 kts | 185° |
| 2026-05-05 05:41 | 29.51080 | -82.34318 | 32376 ft | 557 kts | 185° |
| 2026-05-05 05:42 | 29.47170 | -82.34101 | 31390 ft | 561 kts | 185° |
| 2026-05-05 05:42 | 29.43264 | -82.33879 | 30477 ft | 559 kts | 184° |
| 2026-05-05 05:42 | 29.39443 | -82.33657 | 29993 ft | 548 kts | 184° |
| 2026-05-05 05:42 | 29.35665 | -82.33263 | 29428 ft | 543 kts | 181° |
| 2026-05-05 05:43 | 29.31892 | -82.32783 | 28819 ft | 536 kts | 181° |
| 2026-05-05 05:43 | 29.28206 | -82.32315 | 28200 ft | 530 kts | 181° |
| 2026-05-05 05:43 | 29.24555 | -82.31858 | 27588 ft | 523 kts | 181° |
| 2026-05-05 05:43 | 29.20996 | -82.31418 | 26978 ft | 517 kts | 181° |
| 2026-05-05 05:44 | 29.17404 | -82.30978 | 26370 ft | 511 kts | 180° |
| 2026-05-05 05:44 | 29.13900 | -82.30552 | 25791 ft | 505 kts | 180° |
| 2026-05-05 05:44 | 29.10438 | -82.30133 | 25194 ft | 499 kts | 180° |
| 2026-05-05 05:44 | 29.06980 | -82.29717 | 24613 ft | 494 kts | 180° |
| 2026-05-05 05:45 | 29.03590 | -82.29311 | 24046 ft | 488 kts | 180° |
| 2026-05-05 05:45 | 29.01665 | -82.29080 | 23821 ft | 482 kts | 180° |
| 2026-05-05 05:50 | 29.01017 | -82.29002 | 23763 ft | 480 kts | 180° |
| 2026-05-05 05:50 | 28.97697 | -82.28606 | 23160 ft | 475 kts | 180° |
| 2026-05-05 05:50 | 28.94459 | -82.28221 | 22584 ft | 470 kts | 180° |
| 2026-05-05 05:50 | 28.91232 | -82.27836 | 22463 ft | 453 kts | 180° |
| 2026-05-05 05:51 | 28.88143 | -82.27466 | 22346 ft | 438 kts | 180° |
| 2026-05-05 05:51 | 28.85142 | -82.27110 | 21943 ft | 431 kts | 180° |
| 2026-05-05 05:51 | 28.82138 | -82.26757 | 21255 ft | 433 kts | 180° |
| 2026-05-05 05:51 | 28.79146 | -82.26406 | 20652 ft | 431 kts | 179° |
| 2026-05-05 05:52 | 28.76161 | -82.26054 | 20133 ft | 427 kts | 180° |
| 2026-05-05 05:52 | 28.73236 | -82.25787 | 19685 ft | 418 kts | 183° |
| 2026-05-05 05:52 | 28.70355 | -82.25726 | 19119 ft | 414 kts | 184° |
| 2026-05-05 05:52 | 28.67484 | -82.25686 | 18580 ft | 412 kts | 184° |
| 2026-05-05 05:53 | 28.64622 | -82.25646 | 18075 ft | 408 kts | 184° |
| 2026-05-05 05:53 | 28.61793 | -82.25601 | 17553 ft | 404 kts | 184° |
| 2026-05-05 05:53 | 28.58976 | -82.25549 | 17002 ft | 402 kts | 183° |
| 2026-05-05 05:53 | 28.56204 | -82.25497 | 16564 ft | 396 kts | 183° |
| 2026-05-05 05:54 | 28.53471 | -82.25445 | 16026 ft | 394 kts | 183° |
| 2026-05-05 05:54 | 28.50724 | -82.25399 | 15496 ft | 391 kts | 183° |
| 2026-05-05 05:54 | 28.48009 | -82.25365 | 14984 ft | 388 kts | 183° |
| 2026-05-05 05:54 | 28.45305 | -82.25330 | 14410 ft | 386 kts | 182° |
| 2026-05-05 05:55 | 28.42623 | -82.25297 | 13926 ft | 382 kts | 182° |
| 2026-05-05 05:55 | 28.39991 | -82.25361 | 13449 ft | 376 kts | 189° |
| 2026-05-05 05:55 | 28.37452 | -82.25955 | 12947 ft | 369 kts | 200° |
| 2026-05-05 05:55 | 28.35169 | -82.27139 | 12654 ft | 356 kts | 214° |
| 2026-05-05 05:56 | 28.33157 | -82.28713 | 12563 ft | 338 kts | 218° |
| 2026-05-05 05:56 | 28.31313 | -82.30226 | 12513 ft | 319 kts | 219° |
| 2026-05-05 05:56 | 28.29582 | -82.31706 | 12327 ft | 307 kts | 220° |
| 2026-05-05 05:56 | 28.27940 | -82.33196 | 12225 ft | 292 kts | 222° |
| 2026-05-05 05:57 | 28.26416 | -82.34622 | 12143 ft | 279 kts | 223° |
| 2026-05-05 05:57 | 28.24917 | -82.36043 | 11752 ft | 279 kts | 223° |
| 2026-05-05 05:57 | 28.23426 | -82.37464 | 11340 ft | 278 kts | 223° |
| 2026-05-05 05:57 | 28.21963 | -82.38856 | 11033 ft | 276 kts | 222° |
| 2026-05-05 05:58 | 28.20457 | -82.40216 | 10627 ft | 277 kts | 213° |
| 2026-05-05 05:58 | 28.18615 | -82.40936 | 10186 ft | 281 kts | 191° |
| 2026-05-05 05:58 | 28.16666 | -82.41106 | 9851 ft | 279 kts | 185° |
| 2026-05-05 05:58 | 28.14730 | -82.41161 | 9517 ft | 278 kts | 184° |
| 2026-05-05 05:59 | 28.12802 | -82.41203 | 9193 ft | 275 kts | 183° |
| 2026-05-05 05:59 | 28.10880 | -82.41247 | 8857 ft | 273 kts | 183° |
| 2026-05-05 05:59 | 28.09327 | -82.41283 | 8594 ft | 271 kts | 183° |
| 2026-05-05 05:59 | 28.08519 | -82.41303 | 8440 ft | 270 kts | 183° |
| 2026-05-05 06:00 | 28.06628 | -82.41349 | 8108 ft | 268 kts | 183° |
| 2026-05-05 06:00 | 28.04750 | -82.41394 | 7775 ft | 266 kts | 183° |
| 2026-05-05 06:00 | 28.02919 | -82.41439 | 7431 ft | 265 kts | 182° |
| 2026-05-05 06:00 | 28.01066 | -82.41484 | 7084 ft | 263 kts | 182° |
| 2026-05-05 06:01 | 27.99249 | -82.41528 | 6789 ft | 260 kts | 182° |
| 2026-05-05 06:01 | 27.97440 | -82.41568 | 6465 ft | 257 kts | 182° |
| 2026-05-05 06:01 | 27.95669 | -82.41605 | 6354 ft | 246 kts | 181° |
| 2026-05-05 06:01 | 27.94018 | -82.41639 | 6342 ft | 231 kts | 182° |
| 2026-05-05 06:02 | 27.92448 | -82.41672 | 6255 ft | 221 kts | 182° |
| 2026-05-05 06:02 | 27.90885 | -82.41707 | 5918 ft | 224 kts | 181° |
| 2026-05-05 06:02 | 27.89331 | -82.41747 | 5658 ft | 222 kts | 181° |
| 2026-05-05 06:02 | 27.87778 | -82.41787 | 5360 ft | 222 kts | 181° |
| 2026-05-05 06:03 | 27.86226 | -82.41826 | 5151 ft | 221 kts | 181° |
| 2026-05-05 06:03 | 27.84692 | -82.41876 | 4986 ft | 218 kts | 186° |
| 2026-05-05 06:03 | 27.83224 | -82.42211 | 4900 ft | 216 kts | 193° |
| 2026-05-05 06:03 | 27.81740 | -82.42651 | 4555 ft | 221 kts | 194° |
| 2026-05-05 06:04 | 27.80263 | -82.43098 | 4338 ft | 220 kts | 194° |
| 2026-05-05 06:04 | 27.78815 | -82.43541 | 4309 ft | 209 kts | 194° |
| 2026-05-05 06:04 | 27.77451 | -82.43964 | 4285 ft | 194 kts | 194° |
| 2026-05-05 06:04 | 27.76192 | -82.44395 | 4111 ft | 187 kts | 204° |
| 2026-05-05 06:05 | 27.75514 | -82.44970 | 3896 ft | 191 kts | 229° |
| 2026-05-05 06:05 | 27.75438 | -82.45077 | 3865 ft | 192 kts | 232° |
| 2026-05-05 06:05 | 27.75037 | -82.46501 | 3471 ft | 200 kts | 271° |
| 2026-05-05 06:06 | 27.75509 | -82.47961 | 3107 ft | 202 kts | 310° |
| 2026-05-05 06:06 | 27.76579 | -82.48993 | 2783 ft | 201 kts | 324° |
| 2026-05-05 06:06 | 27.77685 | -82.49942 | 2505 ft | 200 kts | 324° |
| 2026-05-05 06:06 | 27.78788 | -82.50899 | 2274 ft | 198 kts | 324° |
| 2026-05-05 06:07 | 27.79862 | -82.51839 | 2297 ft | 195 kts | 324° |
| 2026-05-05 06:07 | 27.80966 | -82.52808 | 2311 ft | 204 kts | 324° |
| 2026-05-05 06:07 | 27.82084 | -82.53788 | 2306 ft | 200 kts | 324° |
| 2026-05-05 06:07 | 27.83237 | -82.54620 | 2301 ft | 196 kts | 346° |
| 2026-05-05 06:08 | 27.84576 | -82.54702 | 2302 ft | 190 kts | 9° |
| 2026-05-05 06:08 | 27.85877 | -82.54581 | 2298 ft | 183 kts | 7° |
| 2026-05-05 06:08 | 27.87132 | -82.54539 | 2307 ft | 180 kts | 6° |
| 2026-05-05 06:08 | 27.88400 | -82.54500 | 2247 ft | 174 kts | 6° |
| 2026-05-05 06:09 | 27.89624 | -82.54456 | 1700 ft | 181 kts | 7° |
| 2026-05-05 06:09 | 27.90886 | -82.54416 | 1339 ft | 177 kts | 7° |
| 2026-05-05 06:09 | 27.92094 | -82.54375 | 1013 ft | 170 kts | 6° |
| 2026-05-05 06:09 | 27.93278 | -82.54335 | 965 ft | 173 kts | 6° |
| 2026-05-05 06:10 | 27.94523 | -82.54294 | 956 ft | 186 kts | 6° |
| 2026-05-05 06:10 | 27.95900 | -82.54243 | 1475 ft | 208 kts | 5° |
| 2026-05-05 06:10 | 27.97405 | -82.54408 | 2186 ft | 232 kts | 343° |
| 2026-05-05 06:10 | 27.98666 | -82.55504 | 2464 ft | 236 kts | 300° |
| 2026-05-05 06:11 | 27.98992 | -82.57288 | 2510 ft | 229 kts | 258° |
| 2026-05-05 06:11 | 27.98353 | -82.58902 | 2624 ft | 227 kts | 229° |
| 2026-05-05 06:11 | 27.97321 | -82.60240 | 2754 ft | 220 kts | 225° |
| 2026-05-05 06:11 | 27.96281 | -82.61537 | 3157 ft | 231 kts | 225° |
| 2026-05-05 06:12 | 27.95204 | -82.62856 | 3102 ft | 228 kts | 225° |
| 2026-05-05 06:12 | 27.94108 | -82.64155 | 2929 ft | 226 kts | 223° |
| 2026-05-05 06:12 | 27.93005 | -82.65426 | 2669 ft | 232 kts | 222° |
| 2026-05-05 06:12 | 27.91780 | -82.66779 | 2778 ft | 248 kts | 221° |
| 2026-05-05 06:13 | 27.90446 | -82.68076 | 2958 ft | 261 kts | 206° |
| 2026-05-05 06:13 | 27.88776 | -82.68563 | 2701 ft | 253 kts | 175° |
| 2026-05-05 06:13 | 27.87146 | -82.68010 | 2628 ft | 238 kts | 145° |
| 2026-05-05 06:13 | 27.86010 | -82.66750 | 2633 ft | 223 kts | 128° |
| 2026-05-05 06:14 | 27.85077 | -82.65406 | 2629 ft | 211 kts | 127° |
| 2026-05-05 06:14 | 27.84191 | -82.64119 | 2634 ft | 205 kts | 127° |
| 2026-05-05 06:14 | 27.83303 | -82.62827 | 2634 ft | 208 kts | 127° |
| 2026-05-05 06:14 | 27.82406 | -82.61523 | 2630 ft | 210 kts | 127° |
| 2026-05-05 06:15 | 27.81685 | -82.60475 | 2629 ft | 209 kts | 127° |
| 2026-05-05 06:15 | 27.80821 | -82.59216 | 2634 ft | 196 kts | 124° |
| 2026-05-05 06:15 | 27.80343 | -82.57868 | 2616 ft | 179 kts | 96° |
| 2026-05-05 06:15 | 27.80531 | -82.56510 | 2621 ft | 177 kts | 68° |
| 2026-05-05 06:16 | 27.81287 | -82.55421 | 2618 ft | 174 kts | 44° |
| 2026-05-05 06:16 | 27.82306 | -82.54709 | 2622 ft | 178 kts | 15° |
| 2026-05-05 06:16 | 27.83592 | -82.54638 | 2453 ft | 189 kts | 2° |
| 2026-05-05 06:16 | 27.84901 | -82.54647 | 2207 ft | 187 kts | 5° |
| 2026-05-05 06:17 | 27.86101 | -82.54598 | 1985 ft | 185 kts | 6° |
| 2026-05-05 06:17 | 27.87377 | -82.54546 | 1747 ft | 182 kts | 6° |
| 2026-05-05 06:17 | 27.88646 | -82.54501 | 1515 ft | 180 kts | 6° |
| 2026-05-05 06:17 | 27.89887 | -82.54456 | 1285 ft | 178 kts | 6° |
| 2026-05-05 06:18 | 27.91108 | -82.54414 | 1054 ft | 167 kts | 5° |
| 2026-05-05 06:18 | 27.92225 | -82.54375 | 846 ft | 157 kts | 5° |
| 2026-05-05 06:18 | 27.93307 | -82.54338 | 648 ft | 153 kts | 5° |
| 2026-05-05 06:18 | 27.94338 | -82.54303 | 445 ft | 140 kts | 5° |
| 2026-05-05 06:19 | 27.95295 | -82.54275 | 272 ft | 135 kts | 2° |
| 2026-05-05 06:19 | 27.96086 | -82.54250 | 129 ft | 137 kts | 3° |
| 2026-05-05 06:19 | 27.96925 | -82.54217 | 36 ft | 130 kts | 2° |
| 2026-05-05 06:19 | 27.97679 | -82.54190 | 35 ft | 85 kts | 1° |
| 2026-05-05 06:20 | 27.98022 | -82.54178 | 35 ft | 31 kts | 2° |
| 2026-05-05 06:20 | 27.98222 | -82.54141 | 35 ft | 18 kts | 22° |
| 2026-05-05 06:20 | 27.98289 | -82.54098 | 35 ft | 8 kts | 52° |
| 2026-05-05 06:20 | 27.98281 | -82.54057 | 35 ft | 6 kts | 149° |
| 2026-05-05 06:21 | 27.98227 | -82.54047 | 35 ft | 9 kts | 180° |
| 2026-05-05 06:21 | 27.98154 | -82.54049 | 35 ft | 11 kts | 181° |
| 2026-05-05 06:21 | 27.98068 | -82.54052 | 35 ft | 13 kts | 181° |
| 2026-05-05 06:21 | 27.97968 | -82.54055 | 35 ft | 15 kts | 182° |
| 2026-05-05 06:22 | 27.97857 | -82.54060 | 35 ft | 16 kts | 181° |
| 2026-05-05 06:22 | 27.97737 | -82.54063 | 35 ft | 17 kts | 181° |
| 2026-05-05 06:22 | 27.97646 | -82.54067 | 35 ft | 9 kts | 182° |
| 2026-05-05 06:22 | 27.97593 | -82.54054 | 35 ft | 7 kts | 129° |
| 2026-05-05 06:23 | 27.97586 | -82.53983 | 35 ft | 10 kts | 91° |
| 2026-05-05 06:23 | 27.97584 | -82.53906 | 35 ft | 7 kts | 92° |
| 2026-05-05 06:23 | 27.97562 | -82.53840 | 35 ft | 10 kts | 120° |
| 2026-05-05 06:23 | 27.97519 | -82.53767 | 35 ft | 11 kts | 124° |
| 2026-05-05 06:24 | 27.97478 | -82.53698 | 35 ft | 9 kts | 123° |
| 2026-05-05 06:24 | 27.97463 | -82.53649 | 35 ft | 7 kts | 80° |
| 2026-05-05 06:24 | 27.97481 | -82.53616 | 35 ft | 3 kts | 41° |
| 2026-05-05 06:24 | 27.97510 | -82.53610 | 35 ft | 4 kts | 355° |
| 2026-05-05 06:25 | 27.97534 | -82.53612 | 35 ft | 1 kts | 352° |
| 2026-05-05 06:25 | 27.97536 | -82.53613 | 35 ft | 0 kts | 352° |